createdAt,value
2018-04-14T00:01:41.365Z,0.00
2018-04-14T00:02:41.302Z,0.00
2018-04-14T00:04:34.599Z,0.00
2018-04-14T00:05:34.511Z,0.00
2018-04-14T00:07:27.772Z,0.00
2018-04-14T00:08:27.705Z,0.00
2018-04-14T00:10:20.997Z,0.00
2018-04-14T00:11:20.916Z,0.00
2018-04-14T00:13:14.175Z,0.00
2018-04-14T00:14:14.111Z,0.00
2018-04-14T00:16:07.400Z,0.00
2018-04-14T00:17:07.322Z,0.00
2018-04-14T00:19:00.609Z,0.00
2018-04-14T00:20:00.522Z,0.00
2018-04-14T00:21:53.899Z,0.00
2018-04-14T00:22:53.729Z,0.00
2018-04-14T00:24:47.019Z,0.00
2018-04-14T00:25:46.935Z,0.00
2018-04-14T00:27:40.815Z,0.00
2018-04-14T00:28:40.132Z,0.00
2018-04-14T00:30:33.414Z,0.00
2018-04-14T00:31:33.329Z,0.00
2018-04-14T00:33:26.600Z,0.00
2018-04-14T00:34:26.535Z,0.00
2018-04-14T00:36:19.932Z,0.00
2018-04-14T00:37:19.742Z,0.00
2018-04-14T00:39:13.033Z,0.00
2018-04-14T00:40:12.948Z,0.00
2018-04-14T00:42:06.211Z,0.00
2018-04-14T00:43:06.146Z,0.00
2018-04-14T00:44:59.445Z,0.00
2018-04-14T00:45:59.352Z,0.00
2018-04-14T00:47:52.728Z,0.00
2018-04-14T00:48:52.599Z,0.00
2018-04-14T00:50:45.836Z,0.00
2018-04-14T00:51:45.751Z,0.00
2018-04-14T00:53:39.013Z,0.00
2018-04-14T00:54:38.950Z,0.00
2018-04-14T00:56:32.343Z,0.00
2018-04-14T00:57:32.153Z,0.00
2018-04-14T00:59:25.477Z,0.00
2018-04-14T01:00:25.358Z,0.00
2018-04-14T01:02:18.617Z,0.00
2018-04-14T01:03:18.558Z,0.00
2018-04-14T01:05:11.843Z,0.00
2018-04-14T01:06:11.808Z,0.00
2018-04-14T01:08:05.029Z,0.00
2018-04-14T01:09:04.968Z,0.00
2018-04-14T01:10:58.337Z,0.00
2018-04-14T01:11:58.251Z,0.00
2018-04-14T01:13:51.658Z,0.00
2018-04-14T01:14:51.459Z,0.00
2018-04-14T01:16:44.717Z,0.00
2018-04-14T01:17:44.652Z,0.00
2018-04-14T01:19:37.933Z,0.00
2018-04-14T01:20:37.848Z,0.00
2018-04-14T01:22:31.725Z,0.00
2018-04-14T01:23:31.053Z,0.00
2018-04-14T01:25:24.448Z,0.00
2018-04-14T01:26:24.257Z,0.00
2018-04-14T01:28:17.526Z,0.00
2018-04-14T01:29:17.462Z,0.00
2018-04-14T01:31:10.858Z,0.00
2018-04-14T01:32:10.670Z,0.00
2018-04-14T01:34:03.956Z,0.00
2018-04-14T01:35:03.874Z,0.00
2018-04-14T01:36:57.153Z,0.00
2018-04-14T01:37:57.071Z,0.00
2018-04-14T01:39:50.358Z,0.00
2018-04-14T01:40:50.274Z,0.00
2018-04-14T01:42:43.536Z,0.00
2018-04-14T01:43:43.469Z,0.00
2018-04-14T01:45:36.865Z,0.00
2018-04-14T01:46:36.664Z,0.00
2018-04-14T01:48:29.935Z,0.00
2018-04-14T01:49:29.869Z,0.00
2018-04-14T01:51:23.148Z,0.00
2018-04-14T01:52:23.064Z,0.00
2018-04-14T01:54:16.479Z,0.00
2018-04-14T01:55:16.268Z,0.00
2018-04-14T01:57:09.529Z,0.00
2018-04-14T01:58:09.465Z,0.00
2018-04-14T02:00:02.753Z,0.00
2018-04-14T02:01:02.669Z,0.00
2018-04-14T02:02:55.939Z,0.00
2018-04-14T02:03:55.874Z,0.00
2018-04-14T02:05:49.268Z,0.00
2018-04-14T02:06:49.079Z,0.00
2018-04-14T02:08:42.351Z,0.00
2018-04-14T02:09:42.285Z,0.00
2018-04-14T02:11:35.563Z,0.00
2018-04-14T02:12:35.478Z,0.00
2018-04-14T02:14:28.779Z,0.00
2018-04-14T02:15:28.683Z,0.00
2018-04-14T02:17:21.945Z,0.00
2018-04-14T02:18:21.881Z,0.00
2018-04-14T02:20:15.169Z,0.00
2018-04-14T02:21:15.089Z,0.00
2018-04-14T02:23:08.463Z,0.00
2018-04-14T02:24:08.293Z,0.00
2018-04-14T02:26:01.580Z,0.00
2018-04-14T02:27:01.494Z,0.00
2018-04-14T02:28:55.374Z,0.00
2018-04-14T02:29:54.700Z,0.00
2018-04-14T02:31:47.989Z,0.00
2018-04-14T02:32:47.903Z,0.00
2018-04-14T02:34:41.198Z,0.00
2018-04-14T02:35:41.108Z,0.00
2018-04-14T02:37:34.370Z,0.00
2018-04-14T02:38:34.306Z,0.00
2018-04-14T02:40:27.583Z,0.00
2018-04-14T02:41:27.500Z,0.00
2018-04-14T02:43:20.877Z,0.00
2018-04-14T02:44:20.704Z,0.00
2018-04-14T02:46:14.100Z,0.00
2018-04-14T02:47:13.914Z,0.00
2018-04-14T02:49:07.181Z,0.00
2018-04-14T02:50:07.112Z,0.00
2018-04-14T02:52:00.402Z,0.00
2018-04-14T02:53:00.319Z,0.00
2018-04-14T02:54:53.712Z,0.00
2018-04-14T02:55:53.522Z,0.00
2018-04-14T02:57:46.795Z,0.00
2018-04-14T02:58:46.724Z,0.00
2018-04-14T03:00:40.004Z,0.00
2018-04-14T03:01:39.919Z,0.00
2018-04-14T03:03:33.193Z,0.00
2018-04-14T03:04:33.124Z,0.00
2018-04-14T03:06:26.521Z,0.00
2018-04-14T03:07:26.331Z,0.00
2018-04-14T03:09:19.601Z,0.00
2018-04-14T03:10:19.549Z,0.00
2018-04-14T03:12:12.828Z,0.00
2018-04-14T03:13:12.739Z,0.00
2018-04-14T03:15:06.134Z,0.00
2018-04-14T03:16:05.943Z,0.00
2018-04-14T03:17:59.320Z,0.00
2018-04-14T03:18:59.149Z,0.00
2018-04-14T03:20:52.437Z,0.00
2018-04-14T03:21:52.349Z,0.00
2018-04-14T03:23:45.621Z,0.00
2018-04-14T03:24:45.562Z,0.00
2018-04-14T03:26:38.845Z,0.00
2018-04-14T03:27:38.759Z,0.00
2018-04-14T03:29:32.032Z,0.00
2018-04-14T03:30:31.963Z,0.00
2018-04-14T03:32:25.253Z,0.00
2018-04-14T03:33:25.169Z,0.00
2018-04-14T03:35:18.456Z,0.00
2018-04-14T03:36:18.371Z,0.00
2018-04-14T03:38:11.641Z,0.00
2018-04-14T03:39:11.576Z,0.00
2018-04-14T03:41:04.854Z,0.00
2018-04-14T03:42:04.771Z,0.00
2018-04-14T03:43:58.040Z,0.00
2018-04-14T03:44:57.975Z,0.00
2018-04-14T03:46:51.370Z,0.00
2018-04-14T03:47:51.171Z,0.00
2018-04-14T03:49:45.048Z,0.00
2018-04-14T03:50:44.376Z,0.00
2018-04-14T03:52:37.654Z,0.00
2018-04-14T03:53:37.572Z,0.00
2018-04-14T03:55:30.857Z,0.00
2018-04-14T03:56:30.775Z,0.00
2018-04-14T03:58:24.045Z,0.00
2018-04-14T03:59:23.977Z,0.00
2018-04-14T04:01:17.266Z,0.00
2018-04-14T04:02:17.183Z,0.00
2018-04-14T04:04:10.452Z,0.00
2018-04-14T04:05:10.384Z,0.00
2018-04-14T04:07:03.783Z,0.00
2018-04-14T04:08:03.584Z,0.00
2018-04-14T04:09:56.851Z,0.00
2018-04-14T04:10:56.786Z,0.00
2018-04-14T04:12:50.074Z,0.00
2018-04-14T04:13:49.991Z,4.00
2018-04-14T04:15:43.307Z,0.00
2018-04-14T04:16:43.197Z,0.00
2018-04-14T04:18:36.573Z,4.00
2018-04-14T04:19:36.401Z,8.00
2018-04-14T04:21:29.691Z,8.00
2018-04-14T04:22:29.607Z,8.00
2018-04-14T04:24:22.895Z,8.00
2018-04-14T04:25:22.811Z,12.00
2018-04-14T04:27:16.092Z,20.00
2018-04-14T04:28:16.063Z,24.00
2018-04-14T04:30:09.278Z,28.00
2018-04-14T04:31:09.213Z,32.00
2018-04-14T04:33:02.499Z,44.00
2018-04-14T04:34:02.417Z,44.00
2018-04-14T04:35:55.688Z,40.00
2018-04-14T04:36:55.622Z,44.00
2018-04-14T04:38:48.911Z,48.00
2018-04-14T04:39:48.827Z,48.00
2018-04-14T04:41:42.099Z,48.00
2018-04-14T04:42:42.033Z,44.00
2018-04-14T04:44:35.322Z,44.00
2018-04-14T04:45:35.239Z,44.00
2018-04-14T04:47:28.499Z,52.00
2018-04-14T04:48:28.435Z,56.00
2018-04-14T04:50:21.724Z,76.00
2018-04-14T04:51:21.639Z,80.00
2018-04-14T04:53:14.927Z,92.00
2018-04-14T04:54:14.841Z,84.00
2018-04-14T04:56:08.220Z,76.00
2018-04-14T04:57:08.044Z,124.00
2018-04-14T04:59:01.335Z,144.00
2018-04-14T05:00:01.251Z,128.00
2018-04-14T05:01:54.537Z,124.00
2018-04-14T05:02:54.453Z,124.00
2018-04-14T05:04:47.722Z,200.00
2018-04-14T05:05:47.654Z,224.00
2018-04-14T05:07:41.049Z,172.00
2018-04-14T05:08:40.848Z,116.00
2018-04-14T05:10:34.116Z,188.00
2018-04-14T05:11:34.053Z,204.00
2018-04-14T05:13:27.444Z,216.00
2018-04-14T05:14:27.255Z,212.00
2018-04-14T05:16:20.539Z,220.00
2018-04-14T05:17:20.456Z,228.00
2018-04-14T05:19:13.828Z,248.00
2018-04-14T05:20:13.654Z,260.00
2018-04-14T05:22:06.940Z,252.00
2018-04-14T05:23:06.860Z,228.00
2018-04-14T05:25:00.125Z,248.00
2018-04-14T05:26:00.057Z,248.00
2018-04-14T05:27:53.336Z,244.00
2018-04-14T05:28:53.249Z,244.00
2018-04-14T05:30:46.516Z,264.00
2018-04-14T05:31:46.452Z,276.00
2018-04-14T05:33:39.747Z,252.00
2018-04-14T05:34:39.669Z,240.00
2018-04-14T05:36:33.053Z,268.00
2018-04-14T05:37:32.901Z,292.00
2018-04-14T05:39:26.234Z,320.00
2018-04-14T05:40:26.063Z,336.00
2018-04-14T05:42:19.349Z,416.00
2018-04-14T05:43:19.262Z,532.00
2018-04-14T05:45:12.530Z,788.00
2018-04-14T05:46:12.464Z,972.00
2018-04-14T05:48:05.859Z,956.00
2018-04-14T05:49:05.666Z,916.00
2018-04-14T05:50:58.998Z,1044.00
2018-04-14T05:51:58.874Z,1256.00
2018-04-14T05:53:52.263Z,1132.00
2018-04-14T05:54:52.069Z,1052.00
2018-04-14T05:56:45.464Z,1028.00
2018-04-14T05:57:45.264Z,1000.00
2018-04-14T05:59:38.644Z,820.00
2018-04-14T06:00:38.465Z,672.00
2018-04-14T06:02:31.859Z,872.00
2018-04-14T06:03:31.668Z,1052.00
2018-04-14T06:05:24.951Z,880.00
2018-04-14T06:06:24.871Z,840.00
2018-04-14T06:08:18.161Z,1004.00
2018-04-14T06:09:18.167Z,1068.00
2018-04-14T06:11:11.361Z,1440.00
2018-04-14T06:12:11.277Z,1676.00
2018-04-14T06:14:04.546Z,2424.00
2018-04-14T06:15:04.478Z,2100.00
2018-04-14T06:16:57.759Z,1316.00
2018-04-14T06:17:57.674Z,1468.00
2018-04-14T06:19:50.942Z,1524.00
2018-04-14T06:20:50.876Z,1560.00
2018-04-14T06:22:44.169Z,1508.00
2018-04-14T06:23:44.079Z,1424.00
2018-04-14T06:25:37.375Z,1340.00
2018-04-14T06:26:37.282Z,1328.00
2018-04-14T06:28:30.553Z,1452.00
2018-04-14T06:29:30.487Z,1636.00
2018-04-14T06:31:23.775Z,1804.00
2018-04-14T06:32:23.695Z,2044.00
2018-04-14T06:34:16.982Z,2528.00
2018-04-14T06:35:16.895Z,3160.00
2018-04-14T06:37:10.176Z,4616.00
2018-04-14T06:38:10.090Z,4992.00
2018-04-14T06:40:03.360Z,4184.00
2018-04-14T06:41:03.295Z,3864.00
2018-04-14T06:42:56.588Z,4396.00
2018-04-14T06:43:56.503Z,5108.00
2018-04-14T06:45:49.773Z,6032.00
2018-04-14T06:46:49.708Z,6244.00
2018-04-14T06:48:42.989Z,5564.00
2018-04-14T06:49:42.904Z,5748.00
2018-04-14T06:51:36.166Z,5780.00
2018-04-14T06:52:36.100Z,5224.00
2018-04-14T06:54:29.381Z,5776.00
2018-04-14T06:55:29.297Z,6436.00
2018-04-14T06:57:22.579Z,6620.00
2018-04-14T06:58:22.496Z,6476.00
2018-04-14T07:00:15.758Z,4948.00
2018-04-14T07:01:15.694Z,4836.00
2018-04-14T07:03:09.091Z,4984.00
2018-04-14T07:04:08.892Z,5252.00
2018-04-14T07:06:02.161Z,5452.00
2018-04-14T07:07:02.089Z,5824.00
2018-04-14T07:08:55.370Z,5708.00
2018-04-14T07:09:55.287Z,5528.00
2018-04-14T07:11:48.549Z,5908.00
2018-04-14T07:12:48.489Z,6076.00
2018-04-14T07:14:41.881Z,6500.00
2018-04-14T07:15:41.683Z,6048.00
2018-04-14T07:17:34.967Z,6616.00
2018-04-14T07:18:34.884Z,6284.00
2018-04-14T07:20:28.145Z,5688.00
2018-04-14T07:21:28.080Z,6740.00
2018-04-14T07:23:21.362Z,7308.00
2018-04-14T07:24:21.279Z,8092.00
2018-04-14T07:26:14.541Z,8188.00
2018-04-14T07:27:14.477Z,8500.00
2018-04-14T07:29:07.779Z,6744.00
2018-04-14T07:30:07.695Z,6904.00
2018-04-14T07:32:00.958Z,6544.00
2018-04-14T07:33:00.895Z,7016.00
2018-04-14T07:34:54.294Z,6464.00
2018-04-14T07:35:54.096Z,5524.00
2018-04-14T07:37:47.379Z,7756.00
2018-04-14T07:38:47.294Z,7860.00
2018-04-14T07:40:40.576Z,6252.00
2018-04-14T07:41:40.517Z,5592.00
2018-04-14T07:43:33.796Z,5540.00
2018-04-14T07:44:33.712Z,6304.00
2018-04-14T07:46:26.974Z,6112.00
2018-04-14T07:47:26.914Z,5456.00
2018-04-14T07:49:20.199Z,6384.00
2018-04-14T07:50:20.115Z,6268.00
2018-04-14T07:52:13.380Z,7168.00
2018-04-14T07:53:13.327Z,7576.00
2018-04-14T07:55:06.601Z,7860.00
2018-04-14T07:56:06.519Z,7784.00
2018-04-14T07:57:59.803Z,6684.00
2018-04-14T07:58:59.720Z,7576.00
2018-04-14T08:00:52.986Z,7524.00
2018-04-14T08:01:52.922Z,7968.00
2018-04-14T08:03:46.207Z,9360.00
2018-04-14T08:04:46.126Z,9492.00
2018-04-14T08:06:39.392Z,9424.00
2018-04-14T08:07:39.332Z,8472.00
2018-04-14T08:09:32.624Z,7828.00
2018-04-14T08:10:32.543Z,6976.00
2018-04-14T08:12:25.814Z,7476.00
2018-04-14T08:13:25.752Z,9780.00
2018-04-14T08:15:19.054Z,9040.00
2018-04-14T08:16:18.956Z,7144.00
2018-04-14T08:18:12.239Z,7532.00
2018-04-14T08:19:12.165Z,7440.00
2018-04-14T08:21:05.427Z,7728.00
2018-04-14T08:22:05.371Z,8944.00
2018-04-14T08:23:58.651Z,7644.00
2018-04-14T08:24:58.571Z,7860.00
2018-04-14T08:26:51.843Z,7540.00
2018-04-14T08:27:51.781Z,8048.00
2018-04-14T08:29:45.067Z,8368.00
2018-04-14T08:30:44.985Z,9896.00
2018-04-14T08:32:38.318Z,9888.00
2018-04-14T08:33:38.258Z,10048.00
2018-04-14T08:35:31.543Z,9016.00
2018-04-14T08:36:31.461Z,10524.00
2018-04-14T08:38:24.745Z,8976.00
2018-04-14T08:39:24.665Z,7516.00
2018-04-14T08:41:17.940Z,5896.00
2018-04-14T08:42:17.879Z,6516.00
2018-04-14T08:44:11.167Z,6196.00
2018-04-14T08:45:11.086Z,6468.00
2018-04-14T08:47:04.472Z,6356.00
2018-04-14T08:48:04.292Z,7128.00
2018-04-14T08:49:57.578Z,8352.00
2018-04-14T08:50:57.497Z,7948.00
2018-04-14T08:52:50.761Z,6992.00
2018-04-14T08:53:50.723Z,7292.00
2018-04-14T08:55:43.988Z,8944.00
2018-04-14T08:56:43.908Z,9564.00
2018-04-14T08:58:37.204Z,7936.00
2018-04-14T08:59:37.123Z,7632.00
2018-04-14T09:01:30.407Z,6528.00
2018-04-14T09:02:30.343Z,7276.00
2018-04-14T09:04:23.745Z,9980.00
2018-04-14T09:05:23.558Z,7540.00
2018-04-14T09:07:16.836Z,6528.00
2018-04-14T09:08:16.776Z,5744.00
2018-04-14T09:10:10.072Z,5708.00
2018-04-14T09:11:09.989Z,5528.00
2018-04-14T09:13:03.267Z,6568.00
2018-04-14T09:14:03.206Z,5836.00
2018-04-14T09:15:56.500Z,5988.00
2018-04-14T09:16:56.418Z,6068.00
2018-04-14T09:18:49.715Z,8036.00
2018-04-14T09:19:49.632Z,6600.00
2018-04-14T09:21:42.911Z,6776.00
2018-04-14T09:22:42.846Z,6628.00
2018-04-14T09:24:36.142Z,7312.00
2018-04-14T09:25:36.058Z,6724.00
2018-04-14T09:27:29.328Z,7380.00
2018-04-14T09:28:29.264Z,7812.00
2018-04-14T09:30:22.560Z,8132.00
2018-04-14T09:31:22.477Z,7596.00
2018-04-14T09:33:15.758Z,9360.00
2018-04-14T09:34:15.692Z,8628.00
2018-04-14T09:36:09.092Z,10124.00
2018-04-14T09:37:08.910Z,8256.00
2018-04-14T09:39:02.205Z,8092.00
2018-04-14T09:40:02.122Z,7836.00
2018-04-14T09:41:55.410Z,8548.00
2018-04-14T09:42:55.352Z,8284.00
2018-04-14T09:44:48.646Z,11792.00
2018-04-14T09:45:48.564Z,7856.00
2018-04-14T09:47:41.838Z,7792.00
2018-04-14T09:48:41.777Z,8704.00
2018-04-14T09:50:35.082Z,9384.00
2018-04-14T09:51:34.986Z,8652.00
2018-04-14T09:53:28.318Z,8244.00
2018-04-14T09:54:28.258Z,7604.00
2018-04-14T09:56:21.559Z,7696.00
2018-04-14T09:57:21.475Z,7036.00
2018-04-14T09:59:14.774Z,8084.00
2018-04-14T10:00:14.690Z,7688.00
2018-04-14T10:02:07.971Z,7864.00
2018-04-14T10:03:07.909Z,7880.00
2018-04-14T10:05:01.209Z,7812.00
2018-04-14T10:06:01.125Z,8552.00
2018-04-14T10:07:54.404Z,8852.00
2018-04-14T10:08:54.343Z,8352.00
2018-04-14T10:10:47.638Z,6752.00
2018-04-14T10:11:47.565Z,6804.00
2018-04-14T10:13:40.836Z,7024.00
2018-04-14T10:14:40.775Z,6800.00
2018-04-14T10:16:34.072Z,7592.00
2018-04-14T10:17:33.991Z,7540.00
2018-04-14T10:19:27.271Z,7720.00
2018-04-14T10:20:27.243Z,8156.00
2018-04-14T10:22:20.615Z,8252.00
2018-04-14T10:23:20.416Z,8560.00
2018-04-14T10:25:13.692Z,7444.00
2018-04-14T10:26:13.631Z,7760.00
2018-04-14T10:28:06.920Z,6808.00
2018-04-14T10:29:06.837Z,7020.00
2018-04-14T10:31:00.121Z,7140.00
2018-04-14T10:32:00.045Z,7084.00
2018-04-14T10:33:53.310Z,8548.00
2018-04-14T10:34:53.250Z,8040.00
2018-04-14T10:36:46.538Z,7732.00
2018-04-14T10:37:46.501Z,7852.00
2018-04-14T10:39:39.753Z,7236.00
2018-04-14T10:40:39.671Z,7100.00
2018-04-14T10:42:32.942Z,8224.00
2018-04-14T10:43:32.882Z,8464.00
2018-04-14T10:45:26.179Z,8060.00
2018-04-14T10:46:26.098Z,7680.00
2018-04-14T10:48:19.369Z,8248.00
2018-04-14T10:49:19.306Z,8280.00
2018-04-14T10:51:12.591Z,7916.00
2018-04-14T10:52:12.521Z,8032.00
2018-04-14T10:54:05.786Z,8008.00
2018-04-14T10:55:05.722Z,7976.00
2018-04-14T10:56:59.010Z,8664.00
2018-04-14T10:57:58.933Z,8436.00
2018-04-14T10:59:52.223Z,8224.00
2018-04-14T11:00:52.140Z,7916.00
2018-04-14T11:02:45.408Z,8004.00
2018-04-14T11:03:45.348Z,9008.00
2018-04-14T11:05:38.636Z,7804.00
2018-04-14T11:06:38.554Z,8272.00
2018-04-14T11:08:31.825Z,10068.00
2018-04-14T11:09:31.765Z,8892.00
2018-04-14T11:11:25.166Z,10236.00
2018-04-14T11:12:24.972Z,9344.00
2018-04-14T11:14:18.321Z,8116.00
2018-04-14T11:15:18.301Z,9476.00
2018-04-14T11:17:11.552Z,9448.00
2018-04-14T11:18:11.470Z,10604.00
2018-04-14T11:20:04.764Z,8152.00
2018-04-14T11:21:04.692Z,8096.00
2018-04-14T11:22:57.997Z,8504.00
2018-04-14T11:23:57.907Z,8076.00
2018-04-14T11:25:51.177Z,11512.00
2018-04-14T11:26:51.114Z,11268.00
2018-04-14T11:28:44.414Z,9780.00
2018-04-14T11:29:44.345Z,10684.00
2018-04-14T11:31:37.611Z,9380.00
2018-04-14T11:32:37.558Z,9464.00
2018-04-14T11:34:30.841Z,8444.00
2018-04-14T11:35:30.758Z,8036.00
2018-04-14T11:37:24.033Z,8600.00
2018-04-14T11:38:23.973Z,8328.00
2018-04-14T11:40:17.265Z,8500.00
2018-04-14T11:41:17.182Z,9056.00
2018-04-14T11:43:11.301Z,9088.00
2018-04-14T11:44:11.242Z,10620.00
2018-04-14T11:46:04.646Z,10488.00
2018-04-14T11:47:04.449Z,9212.00
2018-04-14T11:48:57.741Z,11436.00
2018-04-14T11:49:57.662Z,9824.00
2018-04-14T11:51:50.950Z,10748.00
2018-04-14T11:52:50.870Z,9580.00
2018-04-14T11:54:44.141Z,7652.00
2018-04-14T11:55:44.082Z,10708.00
2018-04-14T11:57:37.372Z,10728.00
2018-04-14T11:58:37.294Z,10224.00
2018-04-14T12:00:30.587Z,11420.00
2018-04-14T12:01:30.505Z,9732.00
2018-04-14T12:03:23.775Z,10784.00
2018-04-14T12:04:23.718Z,10944.00
2018-04-14T12:06:17.011Z,8608.00
2018-04-14T12:07:16.928Z,8168.00
2018-04-14T12:09:10.199Z,11276.00
2018-04-14T12:10:10.141Z,10652.00
2018-04-14T12:12:03.543Z,8328.00
2018-04-14T12:13:03.352Z,8456.00
2018-04-14T12:14:56.630Z,8636.00
2018-04-14T12:15:56.558Z,8616.00
2018-04-14T12:17:49.966Z,8044.00
2018-04-14T12:18:49.776Z,8860.00
2018-04-14T12:20:43.066Z,8660.00
2018-04-14T12:21:42.990Z,8844.00
2018-04-14T12:23:36.320Z,11720.00
2018-04-14T12:24:36.260Z,9164.00
2018-04-14T12:26:29.662Z,10496.00
2018-04-14T12:27:29.481Z,8560.00
2018-04-14T12:29:22.742Z,9256.00
2018-04-14T12:30:22.682Z,10024.00
2018-04-14T12:32:15.971Z,9840.00
2018-04-14T12:33:15.893Z,10736.00
2018-04-14T12:35:09.165Z,8288.00
2018-04-14T12:36:09.104Z,8188.00
2018-04-14T12:38:02.399Z,5800.00
2018-04-14T12:39:02.318Z,5820.00
2018-04-14T12:40:55.608Z,7704.00
2018-04-14T12:41:55.532Z,6840.00
2018-04-14T12:43:48.911Z,5624.00
2018-04-14T12:44:48.737Z,5352.00
2018-04-14T12:46:42.138Z,5896.00
2018-04-14T12:47:41.950Z,6092.00
2018-04-14T12:49:35.221Z,5112.00
2018-04-14T12:50:35.159Z,4988.00
2018-04-14T12:52:29.446Z,7980.00
2018-04-14T12:53:29.368Z,7596.00
2018-04-14T12:55:22.638Z,6468.00
2018-04-14T12:56:22.581Z,7240.00
2018-04-14T12:58:15.873Z,8644.00
2018-04-14T12:59:15.792Z,9108.00
2018-04-14T13:01:09.092Z,7344.00
2018-04-14T13:02:09.014Z,7104.00
2018-04-14T13:04:02.318Z,7384.00
2018-04-14T13:05:02.257Z,7584.00
2018-04-14T13:06:55.661Z,6784.00
2018-04-14T13:07:55.469Z,7168.00
2018-04-14T13:09:48.750Z,6856.00
2018-04-14T13:10:48.689Z,5972.00
2018-04-14T13:12:41.992Z,5900.00
2018-04-14T13:13:41.910Z,5260.00
2018-04-14T13:15:35.189Z,6484.00
2018-04-14T13:16:35.129Z,6972.00
2018-04-14T13:18:29.538Z,4732.00
2018-04-14T13:19:29.348Z,4468.00
2018-04-14T13:21:22.646Z,4720.00
2018-04-14T13:22:22.557Z,6564.00
2018-04-14T13:24:15.948Z,6164.00
2018-04-14T13:25:15.783Z,5460.00
2018-04-14T13:27:09.184Z,6792.00
2018-04-14T13:28:09.002Z,6628.00
2018-04-14T13:30:02.320Z,4976.00
2018-04-14T13:31:02.256Z,4632.00
2018-04-14T13:32:55.547Z,6404.00
2018-04-14T13:33:55.461Z,7056.00
2018-04-14T13:35:48.733Z,6572.00
2018-04-14T13:36:48.673Z,6364.00
2018-04-14T13:38:42.077Z,6212.00
2018-04-14T13:39:41.882Z,6044.00
2018-04-14T13:41:35.283Z,5636.00
2018-04-14T13:42:35.090Z,5908.00
2018-04-14T13:44:28.368Z,5788.00
2018-04-14T13:45:28.307Z,5780.00
2018-04-14T13:47:21.597Z,5672.00
2018-04-14T13:48:21.516Z,5548.00
2018-04-14T13:50:14.793Z,5808.00
2018-04-14T13:51:14.722Z,5872.00
2018-04-14T13:53:08.126Z,5900.00
2018-04-14T13:54:07.931Z,5828.00
2018-04-14T13:56:01.200Z,5744.00
2018-04-14T13:57:01.137Z,5808.00
2018-04-14T13:58:54.435Z,5968.00
2018-04-14T13:59:54.356Z,5992.00
2018-04-14T14:01:47.655Z,5912.00
2018-04-14T14:02:47.577Z,6716.00
2018-04-14T14:04:40.850Z,7552.00
2018-04-14T14:05:40.789Z,7288.00
2018-04-14T14:07:34.078Z,6596.00
2018-04-14T14:08:33.999Z,5824.00
2018-04-14T14:10:27.269Z,5260.00
2018-04-14T14:11:27.208Z,4924.00
2018-04-14T14:13:20.497Z,4888.00
2018-04-14T14:14:20.417Z,5324.00
2018-04-14T14:16:13.803Z,5384.00
2018-04-14T14:17:13.629Z,5332.00
2018-04-14T14:19:07.030Z,5568.00
2018-04-14T14:20:06.838Z,5572.00
2018-04-14T14:22:00.138Z,5420.00
2018-04-14T14:23:00.058Z,5476.00
2018-04-14T14:24:53.366Z,5588.00
2018-04-14T14:25:53.269Z,5232.00
2018-04-14T14:27:46.669Z,5436.00
2018-04-14T14:28:46.481Z,5384.00
2018-04-14T14:30:39.752Z,6356.00
2018-04-14T14:31:39.689Z,6580.00
2018-04-14T14:33:32.989Z,6012.00
2018-04-14T14:34:32.897Z,6364.00
2018-04-14T14:36:26.166Z,6352.00
2018-04-14T14:37:26.106Z,6052.00
2018-04-14T14:39:19.394Z,5576.00
2018-04-14T14:40:19.314Z,5408.00
2018-04-14T14:42:12.612Z,5164.00
2018-04-14T14:43:12.530Z,5092.00
2018-04-14T14:45:05.811Z,5016.00
2018-04-14T14:46:05.775Z,4996.00
2018-04-14T14:47:59.152Z,5040.00
2018-04-14T14:48:58.966Z,5060.00
2018-04-14T14:50:52.319Z,5016.00
2018-04-14T14:51:52.258Z,4972.00
2018-04-14T14:53:45.559Z,4848.00
2018-04-14T14:54:45.475Z,4772.00
2018-04-14T14:56:38.860Z,4708.00
2018-04-14T14:57:38.697Z,4716.00
2018-04-14T14:59:31.996Z,4644.00
2018-04-14T15:00:31.918Z,4648.00
2018-04-14T15:02:25.194Z,4680.00
2018-04-14T15:03:25.132Z,4692.00
2018-04-14T15:05:18.432Z,4692.00
2018-04-14T15:06:18.353Z,4720.00
2018-04-14T15:08:11.633Z,4704.00
2018-04-14T15:09:11.572Z,4704.00
2018-04-14T15:11:04.871Z,4824.00
2018-04-14T15:12:04.790Z,4852.00
2018-04-14T15:13:58.092Z,4792.00
2018-04-14T15:14:58.011Z,4620.00
2018-04-14T15:16:51.293Z,4544.00
2018-04-14T15:17:51.232Z,4468.00
2018-04-14T15:19:44.523Z,4284.00
2018-04-14T15:20:44.443Z,4156.00
2018-04-14T15:22:37.830Z,4296.00
2018-04-14T15:23:37.651Z,4316.00
2018-04-14T15:25:30.940Z,4360.00
2018-04-14T15:26:30.864Z,4316.00
2018-04-14T15:28:24.133Z,3844.00
2018-04-14T15:29:24.073Z,3840.00
2018-04-14T15:31:17.362Z,3928.00
2018-04-14T15:32:17.281Z,4028.00
2018-04-14T15:34:10.570Z,4060.00
2018-04-14T15:35:10.491Z,4156.00
2018-04-14T15:37:03.763Z,3840.00
2018-04-14T15:38:03.701Z,3628.00
2018-04-14T15:39:56.989Z,3848.00
2018-04-14T15:40:56.911Z,3860.00
2018-04-14T15:42:50.189Z,4052.00
2018-04-14T15:43:50.132Z,3892.00
2018-04-14T15:45:43.419Z,3760.00
2018-04-14T15:46:43.337Z,3460.00
2018-04-14T15:48:36.617Z,4028.00
2018-04-14T15:49:36.557Z,3984.00
2018-04-14T15:51:29.854Z,3876.00
2018-04-14T15:52:29.778Z,3852.00
2018-04-14T15:54:23.073Z,3696.00
2018-04-14T15:55:22.993Z,3672.00
2018-04-14T15:57:16.317Z,3736.00
2018-04-14T15:58:16.256Z,3696.00
2018-04-14T16:00:09.658Z,3408.00
2018-04-14T16:01:09.477Z,3216.00
2018-04-14T16:03:02.754Z,2888.00
2018-04-14T16:04:09.657Z,2820.00
2018-04-14T16:05:55.992Z,2664.00
2018-04-14T16:06:55.912Z,2600.00
2018-04-14T16:08:49.191Z,2504.00
2018-04-14T16:09:49.129Z,2328.00
2018-04-14T16:11:42.428Z,2024.00
2018-04-14T16:12:42.347Z,1924.00
2018-04-14T16:14:35.652Z,1856.00
2018-04-14T16:15:35.567Z,1848.00
2018-04-14T16:17:28.879Z,1924.00
2018-04-14T16:18:28.790Z,2052.00
2018-04-14T16:20:22.089Z,2440.00
2018-04-14T16:21:22.009Z,2624.00
2018-04-14T16:23:15.306Z,2928.00
2018-04-14T16:24:15.227Z,3068.00
2018-04-14T16:26:08.505Z,3188.00
2018-04-14T16:27:08.446Z,3296.00
2018-04-14T16:29:01.744Z,3544.00
2018-04-14T16:30:01.663Z,3676.00
2018-04-14T16:31:54.951Z,3868.00
2018-04-14T16:32:54.886Z,4008.00
2018-04-14T16:34:48.183Z,4180.00
2018-04-14T16:35:48.104Z,4204.00
2018-04-14T16:37:41.413Z,4132.00
2018-04-14T16:38:41.312Z,4060.00
2018-04-14T16:40:34.590Z,3800.00
2018-04-14T16:41:34.530Z,3608.00
2018-04-14T16:43:27.828Z,3256.00
2018-04-14T16:44:27.747Z,3080.00
2018-04-14T16:46:21.024Z,2836.00
2018-04-14T16:47:20.961Z,2720.00
2018-04-14T16:49:14.369Z,2500.00
2018-04-14T16:50:14.291Z,2376.00
2018-04-14T16:52:07.559Z,2236.00
2018-04-14T16:53:07.526Z,2176.00
2018-04-14T16:55:00.909Z,2052.00
2018-04-14T16:56:00.713Z,1984.00
2018-04-14T16:57:54.016Z,1852.00
2018-04-14T16:58:53.929Z,1788.00
2018-04-14T17:00:47.207Z,1712.00
2018-04-14T17:01:47.145Z,1688.00
2018-04-14T17:03:40.447Z,1592.00
2018-04-14T17:04:40.366Z,1540.00
2018-04-14T17:06:33.639Z,1440.00
2018-04-14T17:07:33.579Z,1408.00
2018-04-14T17:09:26.867Z,1336.00
2018-04-14T17:10:26.785Z,1308.00
2018-04-14T17:12:20.069Z,1288.00
2018-04-14T17:13:20.003Z,1260.00
2018-04-14T17:15:13.299Z,1204.00
2018-04-14T17:16:13.217Z,1176.00
2018-04-14T17:18:06.517Z,1132.00
2018-04-14T17:19:06.432Z,1120.00
2018-04-14T17:20:59.733Z,1104.00
2018-04-14T17:21:59.654Z,1096.00
2018-04-14T17:23:52.949Z,1084.00
2018-04-14T17:24:52.870Z,1080.00
2018-04-14T17:26:46.137Z,1068.00
2018-04-14T17:27:46.074Z,1064.00
2018-04-14T17:29:39.373Z,1060.00
2018-04-14T17:30:39.291Z,1060.00
2018-04-14T17:32:32.612Z,1056.00
2018-04-14T17:33:32.508Z,1040.00
2018-04-14T17:35:25.806Z,984.00
2018-04-14T17:36:25.725Z,944.00
2018-04-14T17:38:19.019Z,876.00
2018-04-14T17:39:18.939Z,844.00
2018-04-14T17:41:12.205Z,792.00
2018-04-14T17:42:12.148Z,768.00
2018-04-14T17:44:05.441Z,736.00
2018-04-14T17:45:05.358Z,716.00
2018-04-14T17:46:58.637Z,680.00
2018-04-14T17:47:58.574Z,668.00
2018-04-14T17:49:51.879Z,644.00
2018-04-14T17:50:51.797Z,628.00
2018-04-14T17:52:45.064Z,584.00
2018-04-14T17:53:45.001Z,564.00
2018-04-14T17:55:38.400Z,528.00